createdAt,value
2018-08-06T00:02:06.523Z,101768.02
2018-08-06T00:05:30.970Z,101758.92
2018-08-06T00:08:55.401Z,101761.44
2018-08-06T00:12:19.871Z,101756.69
2018-08-06T00:15:44.284Z,101758.53
2018-08-06T00:19:08.715Z,101754.50
2018-08-06T00:22:33.161Z,101746.66
2018-08-06T00:25:57.744Z,101740.86
2018-08-06T00:29:22.157Z,101735.84
2018-08-06T00:32:47.526Z,101734.70
2018-08-06T00:36:11.966Z,101719.42
2018-08-06T00:39:36.388Z,101725.41
2018-08-06T00:43:00.800Z,101724.33
2018-08-06T00:46:25.224Z,101723.80
2018-08-06T00:49:49.656Z,101721.92
2018-08-06T00:53:14.082Z,101720.59
2018-08-06T00:56:38.541Z,101708.61
2018-08-06T01:00:02.973Z,101707.48
2018-08-06T01:03:27.431Z,101698.67
2018-08-06T01:06:51.879Z,101698.77
2018-08-06T01:10:19.032Z,101692.27
2018-08-06T01:13:43.306Z,101695.52
2018-08-06T01:17:07.773Z,101697.70
2018-08-06T01:20:32.198Z,101688.66
2018-08-06T01:23:56.629Z,101684.02
2018-08-06T01:27:29.727Z,101684.55
2018-08-06T01:30:54.194Z,101682.52
2018-08-06T01:34:18.645Z,101674.88
2018-08-06T01:37:43.091Z,101678.81
2018-08-06T01:41:08.121Z,101676.69
2018-08-06T01:44:32.524Z,101675.88
2018-08-06T01:47:56.936Z,101670.64
2018-08-06T01:51:21.458Z,101669.38
2018-08-06T01:54:45.856Z,101671.00
2018-08-06T01:58:10.264Z,101669.84
2018-08-06T02:01:34.711Z,101665.28
2018-08-06T02:04:59.107Z,101665.92
2018-08-06T02:08:23.537Z,101661.26
2018-08-06T02:11:54.651Z,101659.08
2018-08-06T02:15:19.103Z,101664.18
2018-08-06T02:18:43.527Z,101648.78
2018-08-06T02:22:08.047Z,101653.12
2018-08-06T02:25:32.584Z,101646.14
2018-08-06T02:28:57.008Z,101639.72
2018-08-06T02:32:21.439Z,101634.98
2018-08-06T02:35:45.884Z,101634.59
2018-08-06T02:39:11.550Z,101631.98
2018-08-06T02:42:36.041Z,101629.66
2018-08-06T02:46:00.540Z,101625.77
2018-08-06T02:49:25.069Z,101621.41
2018-08-06T02:52:49.520Z,101618.63
2018-08-06T02:56:13.974Z,101622.65
2018-08-06T02:59:38.372Z,101622.02
2018-08-06T03:03:02.893Z,101621.94
2018-08-06T03:06:27.331Z,101615.33
2018-08-06T03:09:51.758Z,101616.88
2018-08-06T03:13:16.206Z,101615.99
2018-08-06T03:16:40.633Z,101610.70
2018-08-06T03:20:06.043Z,101607.11
2018-08-06T03:23:30.443Z,101614.09
2018-08-06T03:26:54.892Z,101603.12
2018-08-06T03:30:19.327Z,101606.61
2018-08-06T03:33:43.785Z,101602.75
2018-08-06T03:37:08.268Z,101604.66
2018-08-06T03:40:32.713Z,101594.05
2018-08-06T03:43:57.160Z,101595.45
2018-08-06T03:47:21.612Z,101593.41
2018-08-06T03:50:46.102Z,101593.86
2018-08-06T03:54:10.537Z,101595.37
2018-08-06T03:57:34.973Z,101593.81
2018-08-06T04:00:59.409Z,101593.17
2018-08-06T04:04:23.836Z,101591.22
2018-08-06T04:07:48.313Z,101591.00
2018-08-06T04:11:12.811Z,101584.26
2018-08-06T04:14:37.209Z,101584.45
2018-08-06T04:18:01.636Z,101578.56
2018-08-06T04:21:26.118Z,101580.08
2018-08-06T04:24:50.698Z,101577.45
2018-08-06T04:28:15.158Z,101574.33
2018-08-06T04:31:39.714Z,101569.88
2018-08-06T04:35:04.261Z,101572.09
2018-08-06T04:38:28.734Z,101570.81
2018-08-06T04:41:53.124Z,101567.23
2018-08-06T04:45:17.586Z,101565.27
2018-08-06T04:48:42.046Z,101569.23
2018-08-06T04:52:06.933Z,101568.33
2018-08-06T04:55:31.333Z,101567.77
2018-08-06T04:58:55.773Z,101567.73
2018-08-06T05:02:20.264Z,101566.00
2018-08-06T05:05:44.781Z,101572.80
2018-08-06T05:09:11.799Z,101563.83
2018-08-06T05:12:36.252Z,101563.62
2018-08-06T05:16:00.721Z,101567.34
2018-08-06T05:19:25.179Z,101569.11
2018-08-06T05:22:49.626Z,101566.67
2018-08-06T05:26:14.110Z,101571.20
2018-08-06T05:29:38.638Z,101570.77
2018-08-06T05:33:03.105Z,101571.32
2018-08-06T05:36:27.648Z,101579.62
2018-08-06T05:39:52.307Z,101571.25
2018-08-06T05:43:16.783Z,101569.19
2018-08-06T05:46:41.292Z,101573.77
2018-08-06T05:50:09.330Z,101570.49
2018-08-06T05:53:34.761Z,101572.99
2018-08-06T05:56:59.225Z,101572.16
2018-08-06T06:00:23.679Z,101574.12
2018-08-06T06:03:48.079Z,101574.53
2018-08-06T06:07:12.509Z,101577.25
2018-08-06T06:10:36.937Z,101580.50
2018-08-06T06:14:01.391Z,101583.59
2018-08-06T06:17:25.831Z,101576.58
2018-08-06T06:20:50.258Z,101579.53
2018-08-06T06:24:14.714Z,101573.27
2018-08-06T06:27:39.196Z,101568.00
2018-08-06T06:31:03.741Z,101569.15
2018-08-06T06:34:28.217Z,101564.52
2018-08-06T06:37:52.609Z,101561.48
2018-08-06T06:41:17.159Z,101561.19
2018-08-06T06:44:41.596Z,101562.02
2018-08-06T06:48:06.204Z,101558.58
2018-08-06T06:51:30.663Z,101561.37
2018-08-06T06:54:55.342Z,101562.78
2018-08-06T06:58:19.779Z,101563.85
2018-08-06T07:01:44.292Z,101567.38
2018-08-06T07:05:09.005Z,101558.30
2018-08-06T07:08:33.460Z,101556.08
2018-08-06T07:12:19.251Z,101552.49
2018-08-06T07:15:43.788Z,101551.97
2018-08-06T07:19:08.406Z,101541.13
2018-08-06T07:22:32.860Z,101537.02
2018-08-06T07:25:57.423Z,101532.37
2018-08-06T07:29:21.909Z,101524.95
2018-08-06T07:32:46.427Z,101524.59
2018-08-06T07:36:10.890Z,101526.97
2018-08-06T07:39:35.321Z,101520.41
2018-08-06T07:42:59.799Z,101518.98
2018-08-06T07:46:24.256Z,101505.81
2018-08-06T07:49:48.784Z,101503.20
2018-08-06T07:53:13.211Z,101503.95
2018-08-06T07:56:37.673Z,101501.66
2018-08-06T08:00:02.154Z,101499.09
2018-08-06T08:03:26.642Z,101492.69
2018-08-06T08:06:51.125Z,101483.11
2018-08-06T08:10:20.517Z,101478.48
2018-08-06T08:13:45.014Z,101481.78
2018-08-06T08:17:09.501Z,101482.04
2018-08-06T08:20:34.113Z,101471.84
2018-08-06T08:23:58.521Z,101477.14
2018-08-06T08:27:23.068Z,101464.24
2018-08-06T08:30:47.479Z,101455.28
2018-08-06T08:34:11.978Z,101468.03
2018-08-06T08:37:36.804Z,101456.16
2018-08-06T08:41:01.269Z,101457.03
2018-08-06T08:44:25.691Z,101452.68
2018-08-06T08:47:50.175Z,101453.77
2018-08-06T08:51:14.717Z,101454.17
2018-08-06T08:54:39.135Z,101448.57
2018-08-06T08:58:03.675Z,101449.23
2018-08-06T09:01:28.580Z,101441.28
2018-08-06T09:04:53.272Z,101441.34
2018-08-06T09:08:17.747Z,101434.37
2018-08-06T09:11:42.654Z,101438.66
2018-08-06T09:15:16.762Z,101427.97
2018-08-06T09:18:41.227Z,101426.94
2018-08-06T09:22:05.692Z,101427.52
2018-08-06T09:25:30.215Z,101424.50
2018-08-06T09:28:54.847Z,101420.30
2018-08-06T09:32:19.478Z,101413.68
2018-08-06T09:35:43.920Z,101404.16
2018-08-06T09:39:11.729Z,101402.47
2018-08-06T09:42:36.140Z,101398.67
2018-08-06T09:46:00.691Z,101395.14
2018-08-06T09:49:25.153Z,101391.87
2018-08-06T09:52:50.878Z,101388.69
2018-08-06T09:56:15.379Z,101374.23
2018-08-06T09:59:39.812Z,101373.66
2018-08-06T10:03:04.299Z,101374.88
2018-08-06T10:06:28.839Z,101358.73
2018-08-06T10:09:53.409Z,101360.34
2018-08-06T10:13:17.861Z,101353.09
2018-08-06T10:16:42.360Z,101353.95
2018-08-06T10:20:10.111Z,101354.14
2018-08-06T10:23:34.567Z,101339.19
2018-08-06T10:26:59.009Z,101336.09
2018-08-06T10:30:23.928Z,101336.97
2018-08-06T10:33:48.334Z,101340.08
2018-08-06T10:37:12.780Z,101332.33
2018-08-06T10:40:37.195Z,101326.98
2018-08-06T10:44:01.645Z,101322.28
2018-08-06T10:47:26.053Z,101323.15
2018-08-06T10:50:50.482Z,101314.67
2018-08-06T10:54:14.924Z,101315.77
2018-08-06T10:57:40.651Z,101312.61
2018-08-06T11:01:05.067Z,101298.41
2018-08-06T11:04:29.469Z,101292.20
2018-08-06T11:07:53.922Z,101280.27
2018-08-06T11:11:18.321Z,101276.27
2018-08-06T11:14:42.857Z,101278.38
2018-08-06T11:18:07.289Z,101274.06
2018-08-06T11:21:31.684Z,101268.02
2018-08-06T11:24:56.274Z,101262.24
2018-08-06T11:28:20.651Z,101258.71
2018-08-06T11:31:45.084Z,101244.85
2018-08-06T11:35:11.164Z,101254.06
2018-08-06T11:38:35.623Z,101256.12
2018-08-06T11:42:00.064Z,101245.07
2018-08-06T11:45:24.511Z,101233.98
2018-08-06T11:48:48.937Z,101237.93
2018-08-06T11:52:13.379Z,101239.16
2018-08-06T11:55:37.840Z,101232.80
2018-08-06T11:59:02.233Z,101229.64
2018-08-06T12:02:27.115Z,101221.91
2018-08-06T12:05:51.543Z,101227.25
2018-08-06T12:09:15.966Z,101223.90
2018-08-06T12:12:40.664Z,101229.79
2018-08-06T12:16:06.385Z,101220.41
2018-08-06T12:19:30.818Z,101223.05
2018-08-06T12:22:55.241Z,101217.98
2018-08-06T12:26:19.748Z,101214.25
2018-08-06T12:29:44.098Z,101216.29
2018-08-06T12:33:08.316Z,101219.67
2018-08-06T12:36:32.783Z,101215.12
2018-08-06T12:39:57.229Z,101211.75
2018-08-06T12:43:21.730Z,101204.36
2018-08-06T12:46:46.588Z,101213.64
2018-08-06T12:50:12.261Z,101210.56
2018-08-06T12:53:36.662Z,101198.88
2018-08-06T12:57:01.131Z,101195.08
2018-08-06T13:00:27.095Z,101194.80
2018-08-06T13:03:51.525Z,101190.08
2018-08-06T13:07:16.013Z,101195.94
2018-08-06T13:10:40.150Z,101191.58
2018-08-06T13:14:05.048Z,101182.18
2018-08-06T13:17:29.603Z,101180.43
2018-08-06T13:20:54.066Z,101174.34
2018-08-06T13:24:18.526Z,101167.57
2018-08-06T13:27:43.193Z,101170.95
2018-08-06T13:31:08.441Z,101160.59
2018-08-06T13:34:33.046Z,101163.53
2018-08-06T13:37:57.812Z,101161.94
2018-08-06T13:41:22.767Z,101148.87
2018-08-06T13:44:47.659Z,101142.99
2018-08-06T13:48:12.285Z,101137.81
2018-08-06T13:51:36.866Z,101122.03
2018-08-06T13:55:01.453Z,101127.05
2018-08-06T13:58:26.302Z,101124.45
2018-08-06T14:01:51.110Z,101110.61
2018-08-06T14:05:16.762Z,101109.60
2018-08-06T14:08:41.220Z,101107.43
2018-08-06T14:12:06.012Z,101112.60
2018-08-06T14:15:30.533Z,101101.84
2018-08-06T14:18:55.513Z,101101.26
2018-08-06T14:22:20.005Z,101095.27
2018-08-06T14:25:44.693Z,101091.70
2018-08-06T14:29:09.354Z,101082.38
2018-08-06T14:32:34.116Z,101081.78
2018-08-06T14:35:58.863Z,101078.94
2018-08-06T14:39:23.796Z,101074.77
2018-08-06T14:42:48.711Z,101073.53
2018-08-06T14:46:13.534Z,101064.80
2018-08-06T14:49:38.443Z,101060.19
2018-08-06T14:53:02.869Z,101066.98
2018-08-06T14:56:27.407Z,101062.88
2018-08-06T14:59:51.828Z,101060.70
2018-08-06T15:03:16.335Z,101059.84
2018-08-06T15:06:40.771Z,101056.10
2018-08-06T15:10:06.682Z,101058.80
2018-08-06T15:13:31.660Z,101048.78
2018-08-06T15:16:56.155Z,101049.88
2018-08-06T15:20:20.583Z,101037.21
2018-08-06T15:23:45.001Z,101033.73
2018-08-06T15:27:09.455Z,101038.45
2018-08-06T15:30:33.834Z,101028.11
2018-08-06T15:33:58.336Z,101026.20
2018-08-06T15:37:22.855Z,101019.27
2018-08-06T15:40:50.299Z,101021.09
2018-08-06T15:44:14.760Z,101015.81
2018-08-06T15:47:39.417Z,101021.25
2018-08-06T15:51:03.791Z,101008.31
2018-08-06T15:54:28.222Z,101007.50
2018-08-06T15:57:52.639Z,101002.89
2018-08-06T16:01:17.482Z,100997.02
2018-08-06T16:04:41.914Z,100997.83
2018-08-06T16:08:06.558Z,100996.70
2018-08-06T16:11:30.944Z,100993.31
2018-08-06T16:14:55.306Z,100985.94
2018-08-06T16:18:19.703Z,100984.16
2018-08-06T16:21:44.106Z,100977.98
2018-08-06T16:25:09.501Z,100970.56
2018-08-06T16:28:33.879Z,100964.20
2018-08-06T16:31:58.405Z,100965.95
2018-08-06T16:35:24.310Z,100964.70
2018-08-06T16:38:48.739Z,100952.73
2018-08-06T16:42:13.174Z,100957.72
2018-08-06T16:45:37.591Z,100955.69
2018-08-06T16:49:02.014Z,100946.61
2018-08-06T16:52:26.492Z,100940.84
2018-08-06T16:55:51.037Z,100938.82
2018-08-06T16:59:15.453Z,100935.16
2018-08-06T17:02:40.062Z,100938.61
2018-08-06T17:06:04.498Z,100925.52
2018-08-06T17:09:30.150Z,100931.73
2018-08-06T17:12:55.187Z,100932.04
2018-08-06T17:16:19.573Z,100929.66
2018-08-06T17:19:43.993Z,100927.97
2018-08-06T17:23:08.421Z,100929.66
2018-08-06T17:26:32.910Z,100932.75
2018-08-06T17:29:59.062Z,100928.55
2018-08-06T17:33:23.165Z,100926.64
2018-08-06T17:36:47.603Z,100925.81
2018-08-06T17:40:15.817Z,100929.05
2018-08-06T17:43:40.212Z,100931.28
2018-08-06T17:47:04.638Z,100926.36
2018-08-06T17:50:29.047Z,100923.47
2018-08-06T17:53:53.505Z,100917.78
2018-08-06T17:57:18.146Z,100918.78
2018-08-06T18:00:42.557Z,100917.85
2018-08-06T18:04:07.159Z,100911.87
2018-08-06T18:07:31.549Z,100912.19
2018-08-06T18:10:56.035Z,100914.25
2018-08-06T18:14:20.565Z,100913.39
2018-08-06T18:17:45.068Z,100910.33
2018-08-06T18:21:09.499Z,100910.00
2018-08-06T18:24:34.504Z,100912.37
2018-08-06T18:27:58.907Z,100920.59
2018-08-06T18:31:23.706Z,100915.84
2018-08-06T18:34:48.522Z,100915.23
2018-08-06T18:38:13.446Z,100923.56
2018-08-06T18:41:38.244Z,100921.91
2018-08-06T18:45:03.094Z,100919.98
2018-08-06T18:48:28.046Z,100920.60
2018-08-06T18:51:53.192Z,100923.45
2018-08-06T18:55:19.194Z,100924.01
2018-08-06T18:58:43.945Z,100919.38
2018-08-06T19:02:09.350Z,100920.11
2018-08-06T19:05:33.874Z,100924.84
2018-08-06T19:08:58.706Z,100922.12
2018-08-06T19:12:28.777Z,100921.66
2018-08-06T19:15:53.703Z,100922.38
2018-08-06T19:19:28.843Z,100928.54
2018-08-06T19:22:53.559Z,100933.95
2018-08-06T19:26:18.233Z,100933.94
2018-08-06T19:29:43.031Z,100938.30
2018-08-06T19:33:07.955Z,100945.22
2018-08-06T19:37:37.672Z,100938.55
2018-08-06T19:41:02.358Z,100937.66
2018-08-06T19:44:27.451Z,100941.73
2018-08-06T19:47:52.060Z,100937.81
2018-08-06T19:51:16.347Z,100941.75
2018-08-06T19:54:44.090Z,100941.75
2018-08-06T19:58:09.577Z,100943.09
2018-08-06T20:01:36.339Z,100939.92
2018-08-06T20:05:01.200Z,100944.77
2018-08-06T20:08:27.199Z,100944.39
2018-08-06T20:11:52.740Z,100941.28
2018-08-06T20:15:21.568Z,100940.61
2018-08-06T20:18:46.518Z,100940.70
2018-08-06T20:22:17.413Z,100945.52
2018-08-06T20:25:43.709Z,100939.98
2018-08-06T20:29:08.359Z,100946.91
2018-08-06T20:32:34.270Z,100947.50
2018-08-06T20:36:00.334Z,100947.72
2018-08-06T20:39:24.959Z,100948.90
2018-08-06T20:42:49.514Z,100948.78
2018-08-06T20:46:15.229Z,100945.48
2018-08-06T20:49:39.734Z,100948.95
2018-08-06T20:53:04.399Z,100948.79
2018-08-06T20:56:28.997Z,100956.63
2018-08-06T20:59:53.443Z,100960.50
2018-08-06T21:03:18.699Z,100955.67
2018-08-06T21:06:43.803Z,100952.25
2018-08-06T21:10:12.187Z,100952.88
2018-08-06T21:13:37.222Z,100955.23
2018-08-06T21:17:01.668Z,100945.88
2018-08-06T21:20:27.176Z,100945.80
2018-08-06T21:23:51.639Z,100950.02
2018-08-06T21:27:16.559Z,100950.00
2018-08-06T21:30:41.382Z,100949.88
2018-08-06T21:34:06.542Z,100952.89
2018-08-06T21:37:31.198Z,100947.69
2018-08-06T21:40:56.003Z,100952.03
2018-08-06T21:44:21.048Z,100945.46
2018-08-06T21:47:45.413Z,100943.44
2018-08-06T21:51:10.187Z,100954.03
2018-08-06T21:54:34.846Z,100934.55
2018-08-06T21:57:59.273Z,100935.94
2018-08-06T22:01:23.707Z,100944.03
2018-08-06T22:04:48.998Z,100949.92
2018-08-06T22:08:13.543Z,100944.92
2018-08-06T22:11:38.080Z,100940.77
2018-08-06T22:15:02.506Z,100930.95
2018-08-06T22:18:27.004Z,100936.83
2018-08-06T22:21:51.511Z,100935.37
2018-08-06T22:25:16.049Z,100931.66
2018-08-06T22:28:40.528Z,100928.39
2018-08-06T22:32:05.169Z,100926.76
2018-08-06T22:35:29.663Z,100926.66
2018-08-06T22:38:54.153Z,100921.90
2018-08-06T22:42:18.681Z,100922.04
2018-08-06T22:45:43.102Z,100920.20
2018-08-06T22:49:07.678Z,100919.58
2018-08-06T22:52:32.167Z,100921.03
2018-08-06T22:56:05.962Z,100924.65
2018-08-06T22:59:30.401Z,100933.64
2018-08-06T23:02:54.880Z,100921.80
2018-08-06T23:06:18.997Z,100915.97
2018-08-06T23:09:43.437Z,100916.35
2018-08-06T23:13:07.876Z,100907.81
2018-08-06T23:16:32.304Z,100897.64
2018-08-06T23:19:56.782Z,100899.55
2018-08-06T23:23:21.262Z,100895.41
2018-08-06T23:26:45.694Z,100893.90
2018-08-06T23:30:14.921Z,100891.31
2018-08-06T23:33:39.305Z,100888.55
2018-08-06T23:37:03.785Z,100886.94
2018-08-06T23:40:28.210Z,100880.95
2018-08-06T23:43:52.650Z,100885.00
2018-08-06T23:47:17.111Z,100879.77
2018-08-06T23:50:41.566Z,100881.94
2018-08-06T23:54:06.114Z,100873.23
2018-08-06T23:57:30.599Z,100873.48
